createdAt,value
2022-07-29T00:00:47.238Z,22.43
2022-07-29T16:58:34.423Z,-140.82
2022-07-29T17:01:07.965Z,-140.82
2022-07-29T17:04:01.770Z,-140.82
2022-07-29T17:06:43.591Z,-140.82
2022-07-29T17:09:26.165Z,-140.82
2022-07-29T17:12:09.752Z,-140.82
2022-07-29T17:14:41.278Z,-140.82
2022-07-29T17:17:13.682Z,-140.82
2022-07-29T17:19:54.548Z,-140.82
2022-07-29T17:22:23.157Z,-140.82
2022-07-29T17:24:56.171Z,-140.82
2022-07-29T17:27:23.697Z,-140.82
2022-07-29T17:29:51.542Z,-140.82
2022-07-29T17:32:20.523Z,-140.82
2022-07-29T17:34:48.995Z,-140.82
2022-07-29T17:37:17.318Z,-140.82
2022-07-29T17:39:45.388Z,-140.82
2022-07-29T17:42:37.416Z,-140.82
2022-07-29T17:45:05.483Z,-140.82
2022-07-29T17:47:33.588Z,-140.82
2022-07-29T17:50:04.883Z,-140.82
2022-07-29T17:52:32.863Z,-140.82
2022-07-29T17:55:01.355Z,-140.82
2022-07-29T17:57:43.204Z,-140.82
2022-07-29T18:00:21.743Z,-140.82
2022-07-29T18:02:52.953Z,-140.82
2022-07-29T18:05:22.619Z,-140.82
2022-07-29T18:07:51.158Z,-140.82
2022-07-29T18:10:42.861Z,-140.82
2022-07-29T18:13:14.113Z,-140.82
2022-07-29T18:15:41.916Z,19.86
2022-07-29T18:18:09.904Z,19.66
2022-07-29T18:20:40.435Z,19.79
2022-07-29T18:23:11.219Z,19.87
2022-07-29T18:25:47.900Z,19.71
2022-07-29T18:28:15.595Z,19.55
2022-07-29T18:30:43.409Z,19.50
2022-07-29T18:33:21.294Z,19.43
2022-07-29T18:38:35.222Z,19.45
2022-07-29T18:41:03.843Z,19.60
2022-07-29T18:43:31.118Z,19.82
2022-07-29T18:45:59.057Z,19.87
2022-07-29T18:48:32.464Z,19.91
2022-07-29T18:51:03.117Z,19.98
2022-07-29T18:53:37.403Z,20.08
2022-07-29T18:56:05.548Z,20.21
2022-07-29T19:01:32.250Z,20.29
2022-07-29T19:04:01.747Z,20.07
2022-07-29T19:06:29.656Z,19.85
2022-07-29T19:08:57.989Z,19.65
2022-07-29T19:11:26.297Z,19.68
2022-07-29T19:13:54.142Z,19.78
2022-07-29T19:16:29.995Z,19.85
2022-07-29T19:19:08.593Z,19.89
2022-07-29T19:21:45.537Z,19.95
2022-07-29T19:24:15.826Z,19.97
2022-07-29T19:26:47.882Z,20.08
2022-07-29T19:29:23.812Z,19.96
2022-07-29T19:32:05.225Z,19.93
2022-07-29T19:34:35.032Z,19.97
2022-07-29T19:37:06.553Z,20.01
2022-07-29T19:39:37.523Z,19.96
2022-07-29T19:42:11.235Z,19.85
2022-07-29T19:44:47.347Z,19.93
2022-07-29T19:47:17.937Z,19.89
2022-07-29T19:49:46.244Z,19.93
2022-07-29T19:52:13.747Z,19.89
2022-07-29T19:54:43.769Z,19.78
2022-07-29T19:57:17.050Z,19.65
2022-07-29T19:59:45.352Z,19.70
2022-07-29T20:02:13.893Z,19.88
2022-07-29T20:04:46.308Z,19.96
2022-07-29T20:07:18.738Z,19.97
2022-07-29T20:09:46.892Z,19.97
2022-07-29T20:12:14.737Z,19.84
2022-07-29T20:14:44.860Z,19.95
2022-07-29T20:17:16.774Z,19.91
2022-07-29T20:19:48.718Z,19.92
2022-07-29T20:22:21.530Z,19.93
2022-07-29T20:24:53.139Z,20.01
2022-07-29T20:27:20.813Z,20.06
2022-07-29T20:29:48.100Z,20.06
2022-07-29T20:32:18.732Z,19.96
2022-07-29T20:34:46.098Z,19.96
2022-07-29T20:37:15.157Z,19.69
2022-07-29T20:39:48.832Z,19.52
2022-07-29T20:42:19.682Z,19.36
2022-07-29T20:44:47.389Z,19.32
2022-07-29T20:47:16.332Z,19.30
2022-07-29T20:49:44.213Z,19.28
2022-07-29T20:52:11.784Z,19.39
2022-07-29T20:54:39.082Z,19.52
2022-07-29T20:57:06.415Z,19.50
2022-07-29T20:59:36.922Z,19.54
2022-07-29T21:02:09.783Z,19.65
2022-07-29T21:04:37.539Z,19.50
2022-07-29T21:07:05.735Z,19.39
2022-07-29T21:09:33.219Z,19.31
2022-07-29T21:12:01.021Z,19.15
2022-07-29T21:14:50.434Z,19.06
2022-07-29T21:17:22.750Z,19.22
2022-07-29T21:19:55.804Z,19.24
2022-07-29T21:22:26.019Z,19.35
2022-07-29T21:24:56.450Z,19.44
2022-07-29T21:27:45.150Z,19.60
2022-07-29T21:30:14.644Z,19.61
2022-07-29T21:32:45.765Z,19.66
2022-07-29T21:35:35.693Z,19.64
2022-07-29T21:38:00.439Z,19.68
2022-07-29T21:40:27.810Z,19.50
2022-07-29T21:42:54.898Z,19.53
2022-07-29T21:45:22.354Z,19.72
2022-07-29T21:47:49.440Z,19.69
2022-07-29T21:50:16.539Z,19.48
2022-07-29T21:52:43.604Z,19.32
2022-07-29T21:55:11.653Z,19.25
2022-07-29T21:57:44.931Z,19.30
2022-07-29T22:00:16.183Z,19.27
2022-07-29T22:02:44.131Z,19.48
2022-07-29T22:05:12.553Z,19.60
2022-07-29T22:07:56.069Z,19.48
2022-07-29T22:10:28.112Z,19.39
2022-07-29T22:12:57.644Z,19.50
2022-07-29T22:15:27.590Z,19.60
2022-07-29T22:17:55.158Z,19.64
2022-07-29T22:20:22.893Z,19.53
2022-07-29T22:22:50.244Z,19.54
2022-07-29T22:25:17.976Z,19.56
2022-07-29T22:27:45.658Z,19.56
2022-07-29T22:30:13.311Z,19.45
2022-07-29T22:32:41.185Z,19.54
2022-07-29T22:35:11.533Z,19.53
2022-07-29T22:37:41.334Z,19.47
2022-07-29T22:40:09.273Z,19.49
2022-07-29T22:42:40.622Z,19.52
2022-07-29T22:45:11.803Z,19.52
2022-07-29T22:47:48.215Z,19.51
2022-07-29T22:50:17.651Z,19.36
2022-07-29T22:52:45.908Z,19.45
2022-07-29T22:55:13.479Z,19.45
2022-07-29T22:57:41.057Z,19.48
2022-07-29T23:00:09.593Z,19.33
2022-07-29T23:02:38.259Z,19.02
2022-07-29T23:05:06.668Z,19.13
2022-07-29T23:07:33.904Z,19.21
2022-07-29T23:10:01.591Z,19.22
2022-07-29T23:12:28.979Z,19.23
2022-07-29T23:15:02.339Z,19.23
2022-07-29T23:17:31.962Z,19.10
2022-07-29T23:20:08.227Z,18.90
2022-07-29T23:22:37.083Z,18.94
2022-07-29T23:25:12.812Z,18.87
2022-07-29T23:27:40.889Z,18.91
2022-07-29T23:30:08.580Z,18.43
2022-07-29T23:32:35.580Z,18.18
2022-07-29T23:35:02.773Z,18.22
2022-07-29T23:37:29.870Z,18.36
2022-07-29T23:39:57.006Z,18.31
2022-07-29T23:42:24.541Z,18.34
2022-07-29T23:44:51.857Z,18.34
2022-07-29T23:47:19.118Z,18.43
2022-07-29T23:49:46.729Z,18.47
2022-07-29T23:52:13.915Z,18.49
2022-07-29T23:54:40.990Z,18.54
2022-07-29T23:57:08.040Z,18.56
2022-07-29T23:59:35.297Z,18.64
